createdAt,value
2019-01-27T00:01:41.949Z,17.07
2019-01-27T00:04:13.015Z,15.50
2019-01-27T00:06:43.907Z,16.50
2019-01-27T00:09:14.836Z,16.23
2019-01-27T00:11:45.863Z,16.43
2019-01-27T00:14:16.752Z,17.57
2019-01-27T00:16:48.046Z,17.07
2019-01-27T00:19:19.024Z,15.90
2019-01-27T00:21:49.907Z,15.20
2019-01-27T00:24:20.828Z,15.83
2019-01-27T00:26:51.697Z,15.47
2019-01-27T00:29:24.165Z,17.77
2019-01-27T00:31:55.140Z,33.20
2019-01-27T00:34:26.012Z,24.47
2019-01-27T00:36:56.908Z,19.30
2019-01-27T00:39:27.832Z,22.10
2019-01-27T00:42:00.276Z,21.93
2019-01-27T00:44:31.173Z,23.73
2019-01-27T00:47:02.157Z,21.07
2019-01-27T00:49:33.023Z,36.27
2019-01-27T00:52:04.078Z,39.20
2019-01-27T00:54:34.992Z,27.57
2019-01-27T00:57:06.181Z,27.30
2019-01-27T00:59:37.087Z,22.00
2019-01-27T01:02:07.953Z,20.77
2019-01-27T01:04:38.837Z,16.93
2019-01-27T01:07:11.517Z,17.93
2019-01-27T01:09:42.397Z,18.23
2019-01-27T01:12:13.275Z,21.40
2019-01-27T01:14:46.736Z,23.70
2019-01-27T01:17:17.711Z,26.40
2019-01-27T01:19:48.635Z,23.87
2019-01-27T01:22:20.226Z,17.47
2019-01-27T01:24:51.108Z,20.07
2019-01-27T01:27:22.173Z,15.47
2019-01-27T01:29:53.046Z,16.33
2019-01-27T01:32:23.936Z,12.93
2019-01-27T01:34:54.966Z,13.33
2019-01-27T01:37:25.948Z,14.47
2019-01-27T01:39:56.840Z,13.27
2019-01-27T01:42:27.831Z,18.07
2019-01-27T01:45:00.292Z,17.97
2019-01-27T01:47:31.219Z,19.20
2019-01-27T01:50:02.145Z,18.10
2019-01-27T01:52:33.036Z,19.87
2019-01-27T01:55:04.170Z,20.57
2019-01-27T01:57:35.148Z,19.83
2019-01-27T02:00:08.305Z,15.37
2019-01-27T02:02:39.250Z,34.83
2019-01-27T02:05:10.973Z,33.30
2019-01-27T02:07:41.858Z,26.23
2019-01-27T02:10:13.849Z,15.80
2019-01-27T02:12:44.828Z,14.13
2019-01-27T02:16:05.162Z,12.57
2019-01-27T02:18:36.298Z,12.40
2019-01-27T02:21:08.197Z,12.30
2019-01-27T02:23:39.296Z,11.57
2019-01-27T02:26:10.697Z,12.40
2019-01-27T02:28:41.648Z,13.17
2019-01-27T02:31:12.526Z,14.37
2019-01-27T02:33:43.397Z,11.27
2019-01-27T02:36:14.395Z,12.47
2019-01-27T02:38:45.285Z,11.57
2019-01-27T02:41:16.177Z,13.10
2019-01-27T02:43:47.118Z,11.90
2019-01-27T02:46:18.244Z,12.77
2019-01-27T02:48:49.226Z,13.33
2019-01-27T02:51:22.030Z,12.77
2019-01-27T02:53:55.668Z,12.37
2019-01-27T02:56:26.616Z,14.67
2019-01-27T02:58:57.502Z,16.13
2019-01-27T03:01:28.417Z,22.27
2019-01-27T03:03:59.317Z,26.13
2019-01-27T03:06:49.224Z,35.00
2019-01-27T03:09:27.146Z,28.43
2019-01-27T03:11:59.499Z,26.43
2019-01-27T03:14:30.381Z,25.60
2019-01-27T03:17:01.254Z,21.27
2019-01-27T03:19:32.295Z,24.00
2019-01-27T03:22:03.285Z,22.37
2019-01-27T03:24:34.189Z,22.87
2019-01-27T03:27:05.392Z,22.10
2019-01-27T03:29:36.285Z,18.73
2019-01-27T03:32:07.148Z,13.73
2019-01-27T03:34:38.072Z,14.00
2019-01-27T03:37:08.941Z,13.27
2019-01-27T03:39:39.829Z,14.80
2019-01-27T03:42:11.433Z,13.70
2019-01-27T03:44:42.327Z,14.73
2019-01-27T03:47:13.204Z,13.13
2019-01-27T03:49:44.144Z,14.97
2019-01-27T03:52:15.031Z,16.83
2019-01-27T03:54:45.936Z,17.67
2019-01-27T03:57:19.852Z,18.07
2019-01-27T03:59:50.742Z,12.70
2019-01-27T04:02:21.720Z,14.77
2019-01-27T04:04:52.663Z,17.30
2019-01-27T04:07:23.547Z,17.37
2019-01-27T04:09:54.436Z,18.53
2019-01-27T04:12:25.390Z,18.97
2019-01-27T04:14:56.277Z,21.53
2019-01-27T04:17:27.331Z,17.57
2019-01-27T04:19:58.360Z,14.47
2019-01-27T04:22:29.309Z,16.30
2019-01-27T04:25:00.297Z,14.00
2019-01-27T04:27:31.326Z,18.33
2019-01-27T04:30:02.211Z,18.20
2019-01-27T04:32:33.082Z,18.57
2019-01-27T04:35:08.769Z,18.30
2019-01-27T04:37:39.850Z,15.60
2019-01-27T04:40:14.406Z,16.63
2019-01-27T04:42:45.394Z,14.53
2019-01-27T04:45:19.026Z,14.50
2019-01-27T04:47:49.916Z,17.43
2019-01-27T04:50:20.855Z,91.80
2019-01-27T04:52:51.943Z,79.27
2019-01-27T04:55:22.845Z,85.03
2019-01-27T04:57:53.851Z,50.63
2019-01-27T05:00:25.256Z,36.87
2019-01-27T05:03:12.117Z,24.30
2019-01-27T05:05:42.999Z,21.07
2019-01-27T05:08:13.893Z,23.47
2019-01-27T05:10:44.828Z,34.80
2019-01-27T05:13:15.732Z,55.80
2019-01-27T05:15:46.611Z,75.30
2019-01-27T05:18:17.733Z,74.47
2019-01-27T05:20:48.841Z,65.60
2019-01-27T05:23:21.140Z,67.30
2019-01-27T05:25:52.030Z,68.33
2019-01-27T05:28:22.911Z,78.20
2019-01-27T05:30:53.846Z,55.50
2019-01-27T05:33:24.738Z,79.10
2019-01-27T05:35:55.645Z,37.23
2019-01-27T05:38:26.662Z,29.90
2019-01-27T05:40:57.551Z,27.87
2019-01-27T05:43:28.427Z,34.73
2019-01-27T05:45:59.376Z,29.97
2019-01-27T05:48:30.282Z,27.13
2019-01-27T05:51:01.164Z,49.23
2019-01-27T05:53:32.160Z,50.97
2019-01-27T05:56:03.052Z,41.33
2019-01-27T05:58:34.035Z,31.27
2019-01-27T06:01:04.950Z,36.93
2019-01-27T06:03:35.847Z,44.03
2019-01-27T06:06:06.742Z,56.53
2019-01-27T06:08:37.716Z,51.83
2019-01-27T06:11:08.590Z,47.60
2019-01-27T06:13:39.483Z,53.23
2019-01-27T06:16:10.414Z,68.40
2019-01-27T06:18:41.341Z,35.70
2019-01-27T06:21:12.465Z,33.30
2019-01-27T06:23:44.408Z,324.47
2019-01-27T06:26:15.310Z,66.70
2019-01-27T06:28:46.203Z,35.57
2019-01-27T06:31:17.129Z,59.63
2019-01-27T06:34:00.911Z,65.47
2019-01-27T06:36:31.837Z,71.70
2019-01-27T06:39:02.958Z,59.13
2019-01-27T06:41:33.982Z,47.47
2019-01-27T06:44:05.008Z,40.60
2019-01-27T06:46:35.896Z,40.57
2019-01-27T06:49:09.054Z,37.13
2019-01-27T06:51:40.081Z,39.00
2019-01-27T06:54:11.007Z,49.50
2019-01-27T06:56:41.913Z,59.27
2019-01-27T06:59:27.604Z,60.83
2019-01-27T07:02:05.272Z,70.87
2019-01-27T07:04:45.672Z,52.57
2019-01-27T07:07:23.630Z,52.40
2019-01-27T07:10:13.746Z,66.50
2019-01-27T07:12:53.876Z,48.10
2019-01-27T07:15:50.001Z,47.87
2019-01-27T07:18:47.490Z,40.67
2019-01-27T07:21:44.466Z,36.50
2019-01-27T07:24:37.366Z,34.73
2019-01-27T07:27:24.169Z,23.17
2019-01-27T07:30:16.992Z,50.20
2019-01-27T07:33:15.676Z,37.27
2019-01-27T07:36:00.112Z,43.60
2019-01-27T07:38:51.041Z,50.17
2019-01-27T07:41:52.947Z,43.63
2019-01-27T07:44:46.797Z,41.03
2019-01-27T07:47:36.213Z,42.40
2019-01-27T07:50:26.424Z,44.67
2019-01-27T07:53:11.824Z,35.83
2019-01-27T07:56:03.085Z,62.47
2019-01-27T07:59:05.048Z,43.13
2019-01-27T08:01:47.021Z,75.67
2019-01-27T08:04:35.649Z,58.13
2019-01-27T08:07:24.368Z,40.63
2019-01-27T08:10:12.909Z,34.20
2019-01-27T08:13:03.696Z,37.50
2019-01-27T08:15:55.075Z,38.20
2019-01-27T08:18:43.417Z,40.60
2019-01-27T08:21:46.368Z,53.10
2019-01-27T08:24:38.299Z,51.07
2019-01-27T08:27:31.223Z,45.00
2019-01-27T08:30:27.002Z,33.90
2019-01-27T08:33:35.719Z,35.00
2019-01-27T08:36:23.315Z,30.57
2019-01-27T08:39:13.730Z,29.67
2019-01-27T08:42:17.240Z,35.27
2019-01-27T08:45:16.260Z,21.07
2019-01-27T08:47:48.212Z,21.97
2019-01-27T08:50:19.752Z,31.10
2019-01-27T08:52:50.668Z,29.30
2019-01-27T08:55:21.681Z,29.40
2019-01-27T08:57:54.871Z,39.03
2019-01-27T09:00:44.749Z,47.07
2019-01-27T09:03:40.791Z,45.53
2019-01-27T09:06:46.308Z,72.43
2019-01-27T09:09:42.134Z,39.90
2019-01-27T09:12:31.938Z,48.73
2019-01-27T09:15:21.707Z,39.60
2019-01-27T09:18:20.498Z,42.10
2019-01-27T09:21:08.797Z,41.93
2019-01-27T09:23:53.675Z,28.20
2019-01-27T09:26:49.592Z,39.63
2019-01-27T09:29:38.391Z,42.53
2019-01-27T09:32:30.943Z,32.40
2019-01-27T09:35:19.255Z,32.73
2019-01-27T09:38:21.972Z,62.70
2019-01-27T09:41:11.774Z,39.47
2019-01-27T09:44:00.203Z,55.03
2019-01-27T09:47:08.097Z,49.50
2019-01-27T09:49:56.680Z,40.63
2019-01-27T09:52:49.272Z,38.33
2019-01-27T09:55:44.842Z,30.93
2019-01-27T09:58:33.392Z,34.43
2019-01-27T10:01:31.516Z,59.27
2019-01-27T10:04:27.191Z,33.77
2019-01-27T10:07:09.151Z,49.57
2019-01-27T10:10:02.115Z,34.20
2019-01-27T10:13:01.063Z,32.77
2019-01-27T10:15:49.485Z,42.77
2019-01-27T10:18:31.091Z,35.23
2019-01-27T10:21:08.286Z,26.70
2019-01-27T10:23:51.852Z,38.10
2019-01-27T10:26:41.682Z,46.47
2019-01-27T10:29:46.538Z,33.77
2019-01-27T10:32:28.287Z,41.97
2019-01-27T10:35:06.926Z,37.27
2019-01-27T10:38:00.086Z,37.33
2019-01-27T10:40:40.038Z,53.83
2019-01-27T10:43:25.898Z,43.37
2019-01-27T10:46:09.610Z,53.33
2019-01-27T10:49:02.196Z,50.00
2019-01-27T10:51:51.953Z,41.40
2019-01-27T10:54:40.572Z,41.97
2019-01-27T10:57:36.360Z,41.43
2019-01-27T11:00:29.382Z,40.37
2019-01-27T11:03:37.383Z,41.03
2019-01-27T11:06:27.189Z,42.33
2019-01-27T11:09:17.288Z,72.17
2019-01-27T11:12:09.924Z,32.93
2019-01-27T11:14:58.566Z,59.37
2019-01-27T11:17:47.047Z,54.67
2019-01-27T11:20:39.983Z,57.50
2019-01-27T11:23:20.197Z,54.53
2019-01-27T11:26:09.011Z,57.60
2019-01-27T11:29:04.977Z,79.77
2019-01-27T11:31:59.097Z,52.70
2019-01-27T11:34:47.473Z,51.17
2019-01-27T11:37:49.217Z,60.47
2019-01-27T11:40:47.323Z,63.93
2019-01-27T11:43:44.511Z,55.37
2019-01-27T11:46:35.074Z,60.10
2019-01-27T11:49:16.733Z,60.97
2019-01-27T11:51:51.608Z,68.03
2019-01-27T11:54:22.501Z,65.63
2019-01-27T11:56:53.386Z,63.93
2019-01-27T11:59:24.297Z,73.93
2019-01-27T12:01:55.171Z,74.97
2019-01-27T12:04:26.052Z,63.27
2019-01-27T12:06:57.027Z,57.83
2019-01-27T12:09:28.077Z,63.23
2019-01-27T12:12:00.890Z,88.40
2019-01-27T12:14:31.806Z,50.30
2019-01-27T12:17:02.669Z,55.43
2019-01-27T12:19:33.536Z,50.87
2019-01-27T12:22:07.545Z,49.20
2019-01-27T12:24:38.426Z,52.07
2019-01-27T12:27:12.443Z,58.53
2019-01-27T12:29:43.358Z,50.17
2019-01-27T12:32:14.229Z,66.80
2019-01-27T12:34:45.094Z,68.40
2019-01-27T12:37:18.276Z,57.17
2019-01-27T12:39:49.248Z,64.07
2019-01-27T12:42:20.273Z,85.93
2019-01-27T12:44:52.124Z,69.33
2019-01-27T12:47:23.004Z,64.33
2019-01-27T12:49:53.933Z,62.07
2019-01-27T12:52:24.903Z,71.57
2019-01-27T12:54:55.803Z,65.17
2019-01-27T12:57:26.707Z,76.80
2019-01-27T12:59:57.625Z,58.93
2019-01-27T13:02:34.482Z,60.77
2019-01-27T13:05:10.248Z,62.70
2019-01-27T13:07:38.878Z,64.33
2019-01-27T13:10:12.189Z,87.53
2019-01-27T13:12:43.254Z,93.67
2019-01-27T13:15:15.909Z,120.17
2019-01-27T13:17:50.406Z,89.17
2019-01-27T13:20:21.764Z,85.23
2019-01-27T13:22:59.765Z,267.43
2019-01-27T13:25:32.161Z,138.20
2019-01-27T13:28:03.446Z,162.73
2019-01-27T13:30:36.015Z,153.43
2019-01-27T13:33:07.139Z,154.10
2019-01-27T13:35:38.987Z,98.37
2019-01-27T13:38:10.682Z,66.33
2019-01-27T13:40:41.705Z,86.83
2019-01-27T13:43:15.773Z,144.90
2019-01-27T13:45:47.836Z,140.53
2019-01-27T13:48:18.787Z,138.03
2019-01-27T13:50:49.665Z,121.07
2019-01-27T13:53:20.556Z,68.80
2019-01-27T13:55:51.473Z,56.60
2019-01-27T13:58:22.374Z,67.37
2019-01-27T14:00:53.275Z,66.23
2019-01-27T14:03:24.195Z,87.33
2019-01-27T14:05:55.202Z,90.87
2019-01-27T14:08:27.163Z,85.43
2019-01-27T14:10:58.456Z,102.10
2019-01-27T14:13:29.558Z,103.43
2019-01-27T14:16:00.456Z,96.93
2019-01-27T14:18:31.503Z,80.80
2019-01-27T14:21:02.964Z,81.97
2019-01-27T14:23:33.931Z,128.07
2019-01-27T14:26:05.124Z,115.43
2019-01-27T14:28:36.182Z,81.57
2019-01-27T14:31:07.110Z,282.83
2019-01-27T14:33:38.622Z,265.60
2019-01-27T14:36:09.673Z,196.27
2019-01-27T14:38:40.671Z,213.10
2019-01-27T14:41:11.633Z,223.93
2019-01-27T14:43:45.497Z,89.43
2019-01-27T14:46:17.870Z,90.60
2019-01-27T14:48:49.312Z,116.37
2019-01-27T14:51:20.299Z,119.63
2019-01-27T14:53:51.221Z,112.87
2019-01-27T14:56:22.171Z,134.17
2019-01-27T14:58:53.121Z,126.40
2019-01-27T15:01:25.027Z,134.33
2019-01-27T15:03:56.013Z,142.53
2019-01-27T15:06:29.677Z,172.80
2019-01-27T15:09:00.586Z,207.87
2019-01-27T15:11:31.618Z,301.83
2019-01-27T15:14:02.508Z,265.97
2019-01-27T15:16:33.434Z,196.13
2019-01-27T15:19:05.142Z,216.33
2019-01-27T15:21:36.333Z,181.03
2019-01-27T15:24:07.379Z,162.67
2019-01-27T15:26:38.327Z,195.33
2019-01-27T15:29:09.305Z,200.47
2019-01-27T15:31:41.218Z,122.27
2019-01-27T15:34:12.161Z,122.60
2019-01-27T15:36:43.049Z,81.97
2019-01-27T15:39:13.950Z,89.07
2019-01-27T15:41:50.208Z,89.60
2019-01-27T15:44:21.503Z,117.37
2019-01-27T15:46:52.527Z,143.60
2019-01-27T15:49:23.657Z,112.97
2019-01-27T15:51:54.664Z,103.27
2019-01-27T15:54:25.627Z,89.63
2019-01-27T15:56:56.864Z,145.23
2019-01-27T15:59:27.785Z,170.67
2019-01-27T16:01:58.744Z,176.93
2019-01-27T16:04:29.696Z,162.63
2019-01-27T16:07:00.787Z,156.40
2019-01-27T16:09:31.766Z,162.00
2019-01-27T16:12:03.040Z,209.70
2019-01-27T16:14:33.998Z,158.27
2019-01-27T16:17:05.243Z,177.43
2019-01-27T16:19:36.562Z,162.73
2019-01-27T16:22:08.494Z,246.07
2019-01-27T16:24:40.326Z,264.47
2019-01-27T16:27:11.399Z,145.60
2019-01-27T16:29:58.106Z,147.73
2019-01-27T16:32:32.721Z,111.87
2019-01-27T16:35:09.614Z,187.23
2019-01-27T16:37:40.681Z,180.33
2019-01-27T16:40:14.777Z,189.33
2019-01-27T16:42:45.880Z,186.30
2019-01-27T16:45:19.847Z,173.27
2019-01-27T16:47:50.753Z,99.80
2019-01-27T16:50:21.939Z,143.87
2019-01-27T16:52:52.870Z,203.33
2019-01-27T16:55:24.908Z,190.30
2019-01-27T16:58:02.141Z,222.25
2019-01-27T17:00:39.149Z,115.27
2019-01-27T17:03:11.135Z,86.77
2019-01-27T17:05:42.430Z,96.67
2019-01-27T17:08:13.531Z,100.87
2019-01-27T17:10:44.492Z,86.43
2019-01-27T17:13:20.854Z,144.70
2019-01-27T17:15:51.924Z,130.63
2019-01-27T17:18:22.881Z,121.43
2019-01-27T17:20:53.812Z,138.47
2019-01-27T17:23:25.117Z,123.30
2019-01-27T17:26:01.384Z,80.73
2019-01-27T17:28:32.449Z,61.43
2019-01-27T17:31:03.480Z,69.40
2019-01-27T17:33:34.390Z,93.13
2019-01-27T17:36:05.485Z,100.77
2019-01-27T17:38:40.561Z,131.90
2019-01-27T17:41:09.131Z,137.70
2019-01-27T17:43:40.136Z,157.03
2019-01-27T17:46:11.077Z,216.10
2019-01-27T17:48:42.094Z,208.93
2019-01-27T17:51:13.203Z,263.40
2019-01-27T17:53:50.404Z,782.00
2019-01-27T17:56:21.411Z,182.87
2019-01-27T17:59:19.173Z,132.87
2019-01-27T18:02:08.091Z,146.30
2019-01-27T18:04:50.091Z,265.33
2019-01-27T18:07:38.831Z,219.30
2019-01-27T18:10:19.445Z,177.53
2019-01-27T18:13:09.367Z,128.23
2019-01-27T18:15:40.397Z,78.73
2019-01-27T18:18:11.502Z,212.13
2019-01-27T18:20:42.450Z,143.23
2019-01-27T18:23:13.458Z,102.67
2019-01-27T18:25:44.523Z,103.10
2019-01-27T18:28:15.562Z,142.57
2019-01-27T18:30:46.603Z,162.50
2019-01-27T18:33:17.856Z,182.77
2019-01-27T18:35:48.769Z,202.60
2019-01-27T18:38:19.733Z,241.13
2019-01-27T18:40:50.876Z,239.70
2019-01-27T18:43:21.911Z,235.70
2019-01-27T18:45:54.690Z,279.67
2019-01-27T18:48:25.670Z,242.20
2019-01-27T18:50:56.592Z,225.33
2019-01-27T18:53:53.431Z,231.37
2019-01-27T18:56:39.268Z,267.67
2019-01-27T18:59:35.074Z,245.13
2019-01-27T19:02:34.436Z,232.67
2019-01-27T19:05:28.059Z,205.97
2019-01-27T19:08:05.721Z,211.10
2019-01-27T19:11:00.304Z,185.80
2019-01-27T19:13:53.256Z,139.97
2019-01-27T19:16:49.406Z,135.57
2019-01-27T19:19:42.045Z,94.17
2019-01-27T19:22:24.801Z,88.03
2019-01-27T19:25:17.808Z,95.27
2019-01-27T19:28:03.971Z,105.23
2019-01-27T19:31:05.910Z,99.97
2019-01-27T19:33:47.958Z,85.77
2019-01-27T19:36:38.642Z,88.03
2019-01-27T19:39:36.239Z,83.67
2019-01-27T19:42:29.238Z,101.47
2019-01-27T19:45:23.064Z,111.77
2019-01-27T19:48:15.751Z,121.60
2019-01-27T19:51:09.137Z,182.43
2019-01-27T19:54:02.302Z,189.07
2019-01-27T19:56:43.443Z,137.77
2019-01-27T19:59:33.379Z,177.53
2019-01-27T20:02:26.440Z,100.83
2019-01-27T20:05:14.846Z,84.20
2019-01-27T20:07:51.158Z,68.37
2019-01-27T20:10:50.268Z,73.70
2019-01-27T20:13:36.205Z,78.50
2019-01-27T20:16:32.470Z,116.37
2019-01-27T20:19:21.635Z,105.23
2019-01-27T20:22:20.869Z,75.73
2019-01-27T20:25:10.865Z,71.87
2019-01-27T20:28:18.919Z,80.27
2019-01-27T20:31:02.182Z,72.30
2019-01-27T20:33:43.596Z,70.47
2019-01-27T20:36:40.769Z,68.50
2019-01-27T20:39:30.799Z,108.00
2019-01-27T20:42:15.180Z,80.50
2019-01-27T20:45:18.752Z,95.77
2019-01-27T20:48:21.198Z,114.70
2019-01-27T20:51:16.945Z,68.60
2019-01-27T20:54:12.620Z,73.17
2019-01-27T20:57:03.933Z,91.73
2019-01-27T21:00:11.479Z,77.47
2019-01-27T21:03:21.949Z,68.27
2019-01-27T21:06:31.623Z,67.93
2019-01-27T21:09:46.366Z,79.70
2019-01-27T21:13:01.052Z,72.20
2019-01-27T21:16:05.267Z,95.00
2019-01-27T21:19:00.462Z,71.63
2019-01-27T21:21:49.770Z,83.23
2019-01-27T21:24:39.078Z,75.53
2019-01-27T21:27:28.541Z,59.97
2019-01-27T21:30:18.535Z,71.53
2019-01-27T21:33:07.982Z,63.83
2019-01-27T21:35:57.690Z,64.97
2019-01-27T21:38:48.279Z,68.67
2019-01-27T21:41:36.960Z,86.83
2019-01-27T21:44:26.417Z,53.13
2019-01-27T21:47:15.946Z,48.13
2019-01-27T21:49:46.865Z,55.30
2019-01-27T21:52:18.866Z,55.90
2019-01-27T21:54:50.530Z,54.57
2019-01-27T21:57:21.814Z,54.33
2019-01-27T21:59:52.909Z,61.20
2019-01-27T22:02:23.847Z,87.27
2019-01-27T22:04:54.774Z,82.90
2019-01-27T22:07:25.680Z,56.03
2019-01-27T22:09:56.684Z,55.97
2019-01-27T22:12:27.584Z,59.33
2019-01-27T22:14:58.495Z,54.00
2019-01-27T22:17:29.431Z,62.50
2019-01-27T22:20:01.966Z,70.43
2019-01-27T22:22:32.899Z,67.83
2019-01-27T22:25:05.255Z,71.50
2019-01-27T22:27:36.161Z,81.73
2019-01-27T22:30:10.238Z,77.43
2019-01-27T22:32:45.588Z,76.90
2019-01-27T22:35:16.582Z,74.43
2019-01-27T22:37:47.730Z,82.23
2019-01-27T22:40:18.736Z,81.37
2019-01-27T22:42:49.648Z,83.23
2019-01-27T22:45:22.438Z,71.13
2019-01-27T22:47:53.444Z,71.73
2019-01-27T22:50:24.353Z,72.83
2019-01-27T22:52:55.292Z,60.63
2019-01-27T22:55:26.191Z,63.57
2019-01-27T22:57:57.102Z,55.30
2019-01-27T23:00:59.394Z,54.10
2019-01-27T23:03:32.829Z,49.73
2019-01-27T23:06:03.724Z,56.53
2019-01-27T23:08:34.675Z,46.70
2019-01-27T23:11:05.679Z,45.20
2019-01-27T23:13:36.608Z,49.07
2019-01-27T23:16:07.817Z,56.50
2019-01-27T23:18:38.729Z,49.93
2019-01-27T23:21:09.757Z,48.83
2019-01-27T23:23:40.735Z,48.73
2019-01-27T23:26:11.742Z,53.03
2019-01-27T23:28:42.704Z,64.00
2019-01-27T23:31:13.683Z,64.50
2019-01-27T23:33:44.698Z,66.63
2019-01-27T23:36:16.637Z,76.97
2019-01-27T23:38:47.582Z,64.20
2019-01-27T23:41:21.537Z,68.97
2019-01-27T23:43:52.676Z,73.43
2019-01-27T23:46:23.578Z,68.90
2019-01-27T23:48:54.640Z,69.00
2019-01-27T23:51:25.600Z,63.20
2019-01-27T23:53:57.694Z,61.23
2019-01-27T23:56:28.583Z,75.27
2019-01-27T23:59:00.652Z,70.93
